Time;durP1;ratioP1;P1;durP2;ratioP2;P2;SDS_P1;SDS_P2;PMS_P1;PMS_P2;Temp;Humidity;BMP_temperature;BMP_pressure;BME280_temperature;BME280_humidity;BME280_pressure;Samples;Min_cycle;Max_cycle;Signal;HPM_P1;HPM_P2
2022/08/19 00:00:09;;;;;;;4.07;1.55;;;;;;;24.40;76.86;100113.44;5033890;28;20049;-75
2022/08/19 00:02:37;;;;;;;3.92;1.90;;;;;;;24.57;77.05;100116.78;5033233;28;20053;-75
2022/08/19 00:05:18;;;;;;;2.42;1.90;;;;;;;24.51;77.77;100119.16;5032772;28;20053;-74
2022/08/19 00:07:47;;;;;;;4.03;1.90;;;;;;;24.41;78.60;100128.25;5033307;28;20050;-75
2022/08/19 00:10:18;;;;;;;6.35;2.20;;;;;;;24.45;77.77;100120.69;5032757;28;20404;-74
2022/08/19 00:12:47;;;;;;;2.30;1.70;;;;;;;24.48;78.29;100110.72;5032979;28;20046;-75
2022/08/19 00:15:18;;;;;;;2.10;1.90;;;;;;;24.38;78.85;100073.06;5032869;28;20041;-74
2022/08/19 00:17:47;;;;;;;3.13;2.45;;;;;;;24.38;79.33;100026.38;5031358;28;20045;-75
2022/08/19 00:20:18;;;;;;;2.67;2.35;;;;;;;24.40;79.54;99987.63;5032832;28;20052;-74
2022/08/19 00:22:47;;;;;;;5.57;2.47;;;;;;;24.47;78.54;99949.72;5033530;28;20049;-74
2022/08/19 00:25:16;;;;;;;4.32;2.10;;;;;;;24.41;78.54;99936.13;5033563;28;20060;-75
2022/08/19 00:27:44;;;;;;;2.75;2.20;;;;;;;24.48;78.38;99956.94;5031701;28;20056;-74
2022/08/19 00:30:12;;;;;;;3.13;2.10;;;;;;;24.56;78.88;99964.16;5032692;28;20041;-74
2022/08/19 00:32:40;;;;;;;2.53;1.90;;;;;;;24.64;77.89;99939.81;5032763;28;20053;-74
2022/08/19 00:35:09;;;;;;;3.03;1.80;;;;;;;24.28;76.80;99926.44;5033270;28;20053;-75
2022/08/19 00:37:38;;;;;;;2.55;1.63;;;;;;;24.38;76.38;99975.22;5033405;28;20068;-74
2022/08/19 00:40:07;;;;;;;3.63;1.85;;;;;;;24.53;76.98;100066.41;5032396;28;20037;-75
2022/08/19 00:42:35;;;;;;;2.28;1.63;;;;;;;24.34;77.40;100091.84;5033068;28;20048;-75
2022/08/19 00:45:10;;;;;;;2.15;1.92;;;;;;;24.23;76.29;100078.56;5032314;28;20821;-74
2022/08/19 00:47:39;;;;;;;2.15;1.55;;;;;;;24.29;75.83;100079.00;5033115;28;20046;-74
2022/08/19 00:50:09;;;;;;;5.00;2.13;;;;;;;24.45;75.37;100080.72;5032283;28;20054;-74
2022/08/19 00:52:44;;;;;;;3.03;1.60;;;;;;;24.53;75.86;100093.56;5031118;28;20057;-75
2022/08/19 00:55:18;;;;;;;4.80;1.80;;;;;;;24.35;75.81;100108.25;5032471;28;20046;-75
2022/08/19 00:57:54;;;;;;;2.33;1.33;;;;;;;24.21;76.34;100105.31;5032349;28;20415;-75
2022/08/19 01:00:25;;;;;;;2.88;1.90;;;;;;;23.97;76.71;100091.50;5032324;28;20052;-75
2022/08/19 01:02:54;;;;;;;2.22;1.58;;;;;;;23.93;76.89;100106.59;5032706;28;20060;-74
2022/08/19 01:05:27;;;;;;;4.55;1.80;;;;;;;23.67;78.44;100144.63;5031541;28;20045;-74
2022/08/19 01:07:57;;;;;;;4.65;1.60;;;;;;;23.40;80.29;100153.09;5032390;28;20392;-74
2022/08/19 01:10:27;;;;;;;4.05;2.30;;;;;;;23.43;81.31;100155.13;5032468;28;20844;-73
2022/08/19 01:13:01;;;;;;;2.83;1.70;;;;;;;23.35;81.98;100163.41;5032234;28;20511;-73
2022/08/19 01:15:32;;;;;;;4.28;2.63;;;;;;;23.13;81.64;100158.66;5032084;28;20048;-73
2022/08/19 01:18:06;;;;;;;5.50;2.00;;;;;;;22.98;83.19;100141.72;5032105;28;20044;-74
2022/08/19 01:20:34;;;;;;;;;;;;;;;22.89;84.05;100135.59;5032209;28;20053;-74
2022/08/19 01:23:03;;;;;;;4.05;2.25;;;;;;;23.14;82.87;100135.97;5032129;28;20043;-74
2022/08/19 01:25:36;;;;;;;6.18;2.10;;;;;;;23.20;83.00;100134.47;5031905;28;20045;-74
2022/08/19 01:28:05;;;;;;;3.63;2.33;;;;;;;23.27;83.26;100144.91;5032035;28;20033;-74
2022/08/19 01:30:37;;;;;;;7.82;2.38;;;;;;;23.15;83.77;100175.81;5032417;28;20490;-74
2022/08/19 01:33:11;;;;;;;8.18;3.17;;;;;;;22.89;85.29;100172.69;5032220;28;20057;-74
2022/08/19 01:35:41;;;;;;;5.10;3.00;;;;;;;23.07;84.54;100175.72;5031940;28;20056;-74
2022/08/19 01:38:19;;;;;;;7.32;2.63;;;;;;;23.01;84.42;100137.38;5031948;28;20416;-74
2022/08/19 01:40:47;;;;;;;5.32;2.58;;;;;;;23.04;83.35;100139.41;5035193;28;20056;-74
2022/08/19 01:43:15;;;;;;;3.88;2.58;;;;;;;23.33;82.80;100135.06;5035893;28;20377;-74
2022/08/19 01:45:43;;;;;;;4.55;2.55;;;;;;;23.27;83.21;100156.06;5035925;28;20049;-74
2022/08/19 01:48:11;;;;;;;4.82;2.67;;;;;;;23.16;83.88;100161.50;5035277;28;20060;-74
2022/08/19 01:50:39;;;;;;;6.53;2.88;;;;;;;23.26;83.34;100176.00;5035921;28;20058;-74
2022/08/19 01:53:11;;;;;;;5.40;2.80;;;;;;;23.25;84.71;100163.22;5035587;28;20079;-74
2022/08/19 01:55:42;;;;;;;5.03;3.03;;;;;;;23.16;84.70;100163.50;5035599;28;20045;-74
2022/08/19 01:58:16;;;;;;;5.47;3.00;;;;;;;23.56;83.77;100148.09;5035630;28;20052;-74
2022/08/19 02:00:45;;;;;;;6.68;3.25;;;;;;;23.41;82.63;100135.16;5035611;28;20038;-74
2022/08/19 02:03:13;;;;;;;4.38;3.05;;;;;;;23.53;81.95;100128.50;5035975;28;20507;-74
2022/08/19 02:05:41;;;;;;;3.03;2.30;;;;;;;23.49;81.19;100106.13;5035725;28;20052;-74
2022/08/19 02:08:10;;;;;;;5.32;2.35;;;;;;;23.61;81.51;100108.66;5035512;28;20485;-74
2022/08/19 02:10:41;;;;;;;4.65;2.50;;;;;;;23.48;81.48;100101.72;5034848;28;20045;-74
2022/08/19 02:13:10;;;;;;;5.53;2.70;;;;;;;23.39;82.09;100101.22;5035710;28;20088;-74
2022/08/19 02:15:39;;;;;;;4.90;2.17;;;;;;;23.37;82.07;100098.00;5035033;28;20041;-74
2022/08/19 02:18:08;;;;;;;2.50;1.92;;;;;;;23.28;82.17;100087.91;5035958;28;20049;-74
2022/08/19 02:20:37;;;;;;;4.63;1.95;;;;;;;23.16;83.24;100088.16;5035152;28;20041;-74
2022/08/19 02:23:06;;;;;;;6.07;2.42;;;;;;;23.38;81.86;100088.44;5035633;28;20488;-75
2022/08/19 02:25:42;;;;;;;6.43;2.55;;;;;;;23.29;82.24;100069.97;5034748;28;20053;-74
2022/08/19 02:28:11;;;;;;;7.43;2.55;;;;;;;23.29;82.43;100069.97;5035561;28;20046;-74
2022/08/19 02:30:47;;;;;;;5.43;3.10;;;;;;;23.41;81.82;100059.78;5035646;28;20057;-74
2022/08/19 02:33:15;;;;;;;4.85;2.63;;;;;;;23.59;81.35;100046.81;5035075;28;20061;-74
2022/08/19 02:35:45;;;;;;;2.65;2.10;;;;;;;23.35;81.01;100040.56;5035326;28;20492;-74
2022/08/19 02:38:26;;;;;;;4.53;2.35;;;;;;;23.41;81.06;100038.22;5035008;28;20423;-74
2022/08/19 02:41:00;;;;;;;9.60;2.15;;;;;;;23.52;80.88;100057.91;5035619;28;20053;-74
2022/08/19 02:43:29;;;;;;;;;;;;;;;23.59;80.83;100088.69;5035084;28;20044;-74
2022/08/19 02:46:02;;;;;;;3.42;2.10;;;;;;;23.49;80.88;100092.16;5034519;28;19928;-74
2022/08/19 02:48:32;;;;;;;3.35;1.85;;;;;;;23.58;81.01;100091.88;5035060;28;20373;-74
2022/08/19 02:51:00;;;;;;;3.80;2.45;;;;;;;23.48;81.94;100105.34;5033958;28;20045;-74
2022/08/19 02:53:29;;;;;;;4.18;2.50;;;;;;;23.52;81.46;100094.22;5034430;28;20404;-74
2022/08/19 02:55:57;;;;;;;3.65;2.22;;;;;;;23.35;81.75;100079.66;5034765;28;20048;-74
2022/08/19 02:58:26;;;;;;;4.93;2.50;;;;;;;23.43;82.02;100072.16;5034303;28;20400;-74
2022/08/19 03:00:56;;;;;;;3.03;2.03;;;;;;;23.37;82.27;100075.66;5034656;28;20056;-74
2022/08/19 03:03:24;;;;;;;5.05;2.33;;;;;;;23.26;82.87;100079.09;5034105;28;20045;-74
2022/08/19 03:06:06;;;;;;;4.25;2.25;;;;;;;23.27;82.39;100074.31;5034411;28;20076;-74
2022/08/19 03:08:35;;;;;;;5.75;2.60;;;;;;;23.32;82.07;100076.81;5034973;28;20065;-74
2022/08/19 03:11:03;;;;;;;6.15;2.83;;;;;;;23.33;82.46;100089.59;5034931;28;20041;-74
2022/08/19 03:13:31;;;;;;;3.17;2.22;;;;;;;23.33;81.44;100092.38;5033911;28;20056;-74
2022/08/19 03:15:59;;;;;;;3.00;2.13;;;;;;;23.30;82.06;100102.28;5034140;28;20041;-74
2022/08/19 03:18:27;;;;;;;6.35;2.28;;;;;;;23.28;82.17;100106.63;5034351;28;20054;-74
2022/08/19 03:20:55;;;;;;;6.78;2.90;;;;;;;23.34;81.51;100114.34;5034255;28;20049;-74
2022/08/19 03:23:23;;;;;;;4.22;2.42;;;;;;;23.32;81.45;100108.31;5034570;28;20054;-74
2022/08/19 03:25:53;;;;;;;4.78;2.47;;;;;;;23.27;82.16;100114.19;5032017;28;20049;-74
2022/08/19 03:28:33;;;;;;;5.03;2.58;;;;;;;23.27;82.42;100121.78;5034157;28;20535;-74
2022/08/19 03:31:12;;;;;;;8.02;2.83;;;;;;;23.35;80.88;100126.28;5033213;28;20076;-74
2022/08/19 03:34:00;;;;;;;8.40;2.78;;;;;;;23.46;81.17;100126.44;5033931;28;20068;-74
2022/08/19 03:36:31;;;;;;;3.90;1.83;;;;;;;23.40;79.85;100125.19;5033930;28;20052;-74
2022/08/19 03:39:00;;;;;;;2.67;2.08;;;;;;;23.33;79.67;100132.28;5033994;28;20068;-74
2022/08/19 03:41:32;;;;;;;9.20;2.20;;;;;;;23.51;79.36;100128.09;5033619;28;20045;-74
2022/08/19 03:44:14;;;;;;;5.60;2.58;;;;;;;23.50;79.41;100135.66;5033506;28;20049;-74
2022/08/19 03:46:52;;;;;;;6.70;2.70;;;;;;;23.44;79.18;100131.59;5032973;28;20396;-74
2022/08/19 03:49:23;;;;;;;4.38;2.58;;;;;;;23.41;79.31;100121.97;5034169;28;20080;-74
2022/08/19 03:51:56;;;;;;;5.95;2.80;;;;;;;23.41;79.18;100133.16;5033640;28;20046;-74
2022/08/19 03:54:25;;;;;;;6.38;2.47;;;;;;;23.42;79.08;100142.34;5033504;28;20068;-74
2022/08/19 03:56:55;;;;;;;5.43;2.08;;;;;;;23.43;78.44;100158.72;5033248;28;20034;-74
2022/08/19 03:59:27;;;;;;;5.68;1.83;;;;;;;23.61;78.86;100170.09;5033501;28;20053;-74
2022/08/19 04:01:58;;;;;;;5.88;2.05;;;;;;;23.67;77.46;100176.19;5032907;28;20045;-74
2022/08/19 04:04:27;;;;;;;2.42;1.85;;;;;;;23.71;77.62;100185.38;5032714;28;20053;-74
2022/08/19 04:06:56;;;;;;;4.20;2.50;;;;;;;23.84;78.84;100190.72;5032194;28;20061;-74
2022/08/19 04:09:25;;;;;;;7.75;2.30;;;;;;;23.77;78.78;100194.25;5032772;28;20373;-74
2022/08/19 04:11:55;;;;;;;5.07;2.38;;;;;;;23.84;78.46;100205.50;5031390;28;20049;-74
2022/08/19 04:14:29;;;;;;;4.63;2.30;;;;;;;23.74;78.41;100206.16;5033028;28;20057;-74
2022/08/19 04:17:05;;;;;;;6.85;2.80;;;;;;;23.80;78.20;100217.81;5033230;28;20602;-74
2022/08/19 04:19:35;;;;;;;5.78;2.47;;;;;;;23.81;77.85;100234.22;5022010;28;20521;-74
2022/08/19 04:22:04;;;;;;;4.78;2.20;;;;;;;23.93;77.79;100247.13;5032726;28;20050;-74
2022/08/19 04:24:33;;;;;;;8.02;2.70;;;;;;;24.01;77.64;100264.78;5033093;28;20060;-74
2022/08/19 04:27:02;;;;;;;5.10;2.40;;;;;;;23.99;77.81;100270.75;5032640;28;20044;-74
2022/08/19 04:29:30;;;;;;;7.43;2.40;;;;;;;23.95;77.73;100281.06;5032752;28;20396;-74
2022/08/19 04:31:58;;;;;;;6.40;2.67;;;;;;;23.88;77.83;100289.38;5032985;28;20060;-74
2022/08/19 04:34:36;;;;;;;2.88;2.10;;;;;;;23.92;78.06;100295.00;5032519;28;20046;-74
2022/08/19 04:37:26;;;;;;;5.40;2.53;;;;;;;23.81;77.34;100295.69;5032637;28;20511;-74
2022/08/19 04:42:53;;;;;;;6.40;2.33;;;;;;;24.07;76.23;100291.25;5032313;28;20049;-78
2022/08/19 04:45:21;;;;;;;6.53;2.60;;;;;;;24.43;74.52;100286.06;5032467;28;20459;-78
2022/08/19 04:47:55;;;;;;;6.20;2.53;;;;;;;24.70;73.33;100277.53;5032099;28;20049;-78
2022/08/19 04:50:43;;;;;;;9.03;2.00;;;;;;;24.75;73.51;100273.59;5032555;28;20037;-78
2022/08/19 04:53:11;;;;;;;5.82;1.95;;;;;;;24.89;72.96;100266.56;5032750;28;20057;-78
2022/08/19 04:55:41;;;;;;;3.80;1.95;;;;;;;25.21;71.64;100247.22;5032903;28;20053;-78
2022/08/19 04:58:09;;;;;;;6.97;2.72;;;;;;;25.08;72.60;100237.53;5032116;28;20050;-78
2022/08/19 05:00:39;;;;;;;6.13;3.15;;;;;;;24.94;74.40;100235.41;5032817;28;20045;-77
2022/08/19 05:03:07;;;;;;;4.60;2.78;;;;;;;25.28;72.32;100220.44;5030700;28;20058;-78
2022/08/19 05:05:41;;;;;;;5.55;2.85;;;;;;;25.02;74.50;100223.06;5031723;28;20050;-79
2022/08/19 05:08:13;;;;;;;10.18;3.22;;;;;;;24.81;75.05;100226.50;5032585;28;20412;-79
2022/08/19 05:10:42;;;;;;;6.07;2.85;;;;;;;25.02;73.79;100230.69;5032041;28;20042;-78
2022/08/19 05:13:11;;;;;;;6.32;3.08;;;;;;;25.10;73.82;100226.72;5030899;28;20049;-78
2022/08/19 05:15:38;;;;;;;5.78;3.00;;;;;;;25.00;74.19;100211.47;5031503;28;20072;-78
2022/08/19 05:23:40;;;;;;;5.82;2.35;;;;;;;25.57;71.33;100184.22;5031873;28;20048;-79
2022/08/19 05:26:10;;;;;;;4.55;2.83;;;;;;;25.55;71.20;100179.00;5031958;28;20058;-79
2022/08/19 05:28:38;;;;;;;3.60;2.42;;;;;;;25.49;71.29;100178.56;5032271;28;20045;-79
2022/08/19 05:31:06;;;;;;;5.13;2.40;;;;;;;25.33;71.42;100190.06;5012208;28;20073;-79
2022/08/19 05:33:33;;;;;;;5.53;2.22;;;;;;;25.15;72.63;100197.56;5063875;28;20045;-79
2022/08/19 05:36:02;;;;;;;5.75;2.17;;;;;;;25.20;72.17;100197.19;5031264;28;20056;-78
2022/08/19 05:38:30;;;;;;;3.10;2.60;;;;;;;25.00;72.85;100205.06;5030612;28;20037;-79
2022/08/19 05:40:58;;;;;;;10.00;2.83;;;;;;;24.91;73.63;100206.22;5063715;28;20052;-78
2022/08/19 05:43:26;;;;;;;4.80;2.55;;;;;;;24.90;73.55;100215.81;5031983;28;20045;-79
2022/08/19 05:45:54;;;;;;;7.38;2.42;;;;;;;24.63;73.82;100213.13;5031318;28;20049;-79
2022/08/19 05:48:22;;;;;;;6.60;2.00;;;;;;;24.81;73.74;100213.31;5032697;28;20396;-78
2022/08/19 05:50:50;;;;;;;5.72;2.33;;;;;;;24.94;73.22;100216.59;5031734;28;20045;-79
2022/08/19 05:53:19;;;;;;;1.88;1.75;;;;;;;25.01;73.35;100215.06;5031144;28;20050;-78
2022/08/19 05:55:47;;;;;;;4.63;1.95;;;;;;;24.84;73.69;100208.94;5031196;28;20049;-78
2022/08/19 05:58:16;;;;;;;9.30;2.22;;;;;;;24.73;74.04;100196.84;5031881;28;20050;-78
2022/08/19 06:00:44;;;;;;;3.92;2.22;;;;;;;24.45;75.28;100192.59;5031576;28;20061;-78
2022/08/19 06:03:12;;;;;;;3.92;1.67;;;;;;;24.49;75.48;100173.84;5030224;28;20042;-78
2022/08/19 06:05:41;;;;;;;4.68;2.17;;;;;;;24.51;75.56;100188.25;5031705;28;20065;-78
2022/08/19 06:08:19;;;;;;;2.70;2.15;;;;;;;24.62;75.36;100185.53;5032178;28;20049;-79
2022/08/19 06:11:23;;;;;;;1.92;1.73;;;;;;;24.73;74.42;100183.63;5032116;28;20061;-79
2022/08/19 06:13:53;;;;;;;2.13;1.70;;;;;;;24.59;74.90;100170.34;5031571;28;20392;-78
2022/08/19 06:16:27;;;;;;;7.47;2.22;;;;;;;24.55;75.40;100166.72;5029660;28;20045;-79
2022/08/19 06:18:59;;;;;;;5.60;2.38;;;;;;;24.52;75.34;100157.09;5031825;28;20480;-78
2022/08/19 06:21:29;;;;;;;4.65;2.20;;;;;;;24.55;75.49;100149.94;5031270;28;20045;-78
2022/08/19 06:23:57;;;;;;;5.13;2.45;;;;;;;24.37;76.70;100139.41;5027874;28;20041;-78
2022/08/19 06:26:27;;;;;;;6.72;2.55;;;;;;;24.45;76.46;100125.47;5031157;28;20377;-78
2022/08/19 06:28:55;;;;;;;4.97;2.80;;;;;;;24.37;76.94;100131.00;5034247;28;20041;-78
2022/08/19 06:31:26;;;;;;;7.55;2.38;;;;;;;24.55;76.58;100135.97;5034640;28;20045;-78
2022/08/19 06:33:54;;;;;;;6.70;2.40;;;;;;;24.53;76.44;100143.91;5034130;28;20053;-78
2022/08/19 06:36:31;;;;;;;3.25;2.75;;;;;;;24.39;76.97;100153.78;5033987;28;20427;-78
2022/08/19 06:39:02;;;;;;;5.45;3.30;;;;;;;24.46;76.81;100158.66;5032084;28;20045;-78
2022/08/19 06:41:30;;;;;;;6.05;2.80;;;;;;;24.51;76.63;100175.09;5034548;28;20049;-78
2022/08/19 06:43:58;;;;;;;8.80;2.80;;;;;;;24.64;76.15;100188.78;5054886;28;20049;-78
2022/08/19 06:46:27;;;;;;;4.82;2.50;;;;;;;24.60;76.03;100190.72;5044141;28;20041;-78
2022/08/19 06:48:55;;;;;;;7.85;2.88;;;;;;;24.95;74.39;100193.06;5037917;28;20391;-78
2022/08/19 06:51:24;;;;;;;5.40;2.85;;;;;;;25.11;73.64;100193.94;5039269;28;20053;-77
2022/08/19 06:53:58;;;;;;;7.60;2.42;;;;;;;25.27;72.86;100193.66;5050670;28;20048;-77
2022/08/19 06:56:33;;;;;;;3.45;2.30;;;;;;;25.51;71.98;100211.78;5046762;28;20056;-77
2022/08/19 06:59:04;;;;;;;5.47;2.85;;;;;;;25.61;71.80;100205.47;5036567;28;20072;-76
2022/08/19 07:01:41;;;;;;;6.20;2.88;;;;;;;25.54;72.22;100211.03;5041226;28;20049;-76
2022/08/19 07:04:09;;;;;;;6.72;3.22;;;;;;;25.14;74.47;100223.94;5050043;28;20049;-76
2022/08/19 07:06:39;;;;;;;5.75;2.90;;;;;;;25.28;73.03;100228.84;5038653;28;20519;-76
2022/08/19 07:09:13;;;;;;;8.13;3.53;;;;;;;25.21;74.01;100224.81;5040968;28;20053;-76
2022/08/19 07:11:47;;;;;;;6.32;3.45;;;;;;;24.96;75.02;100228.25;5048917;28;20045;-76
2022/08/19 07:14:18;;;;;;;6.65;3.65;;;;;;;24.85;75.46;100240.53;5044752;28;20495;-76
2022/08/19 07:16:49;;;;;;;5.28;2.92;;;;;;;24.84;75.53;100239.72;5048758;28;20060;-76
2022/08/19 07:19:19;;;;;;;6.55;3.40;;;;;;;24.89;76.47;100244.97;5049575;28;20057;-75
2022/08/19 07:21:49;;;;;;;6.57;4.57;;;;;;;24.79;77.37;100235.25;5050904;28;20044;-75
2022/08/19 07:24:17;;;;;;;7.07;3.80;;;;;;;24.88;76.70;100243.34;5043912;28;20064;-75
2022/08/19 07:26:46;;;;;;;6.40;3.90;;;;;;;24.79;77.12;100251.25;5041978;28;20049;-75
2022/08/19 07:29:22;;;;;;;6.70;3.90;;;;;;;24.99;76.13;100242.63;5033067;28;20767;-75
2022/08/19 07:31:56;;;;;;;5.82;3.65;;;;;;;25.12;75.88;100249.53;5019164;28;20049;-75
2022/08/19 07:34:28;;;;;;;5.55;3.28;;;;;;;25.21;75.39;100261.22;5032348;28;20053;-75
2022/08/19 07:36:57;;;;;;;7.57;3.65;;;;;;;25.05;76.44;100266.28;5032392;28;20053;-75
2022/08/19 07:39:30;;;;;;;10.23;3.30;;;;;;;24.99;76.62;100257.44;5029700;28;20045;-75
2022/08/19 07:42:01;;;;;;;5.88;3.30;;;;;;;24.96;76.90;100256.22;5023867;28;20501;-75
2022/08/19 07:44:29;;;;;;;7.63;3.63;;;;;;;25.13;75.79;100241.94;5031566;28;20049;-75
2022/08/19 07:46:58;;;;;;;5.80;3.97;;;;;;;24.89;77.82;100261.78;5028658;28;20385;-75
2022/08/19 07:49:27;;;;;;;5.57;4.15;;;;;;;24.72;78.63;100268.75;5033057;28;20053;-75
2022/08/19 07:52:01;;;;;;;9.32;4.53;;;;;;;24.50;79.34;100264.97;5032716;28;20049;-76
2022/08/19 07:54:33;;;;;;;6.25;3.28;;;;;;;24.47;79.78;100263.72;5030726;28;20053;-76
2022/08/19 07:57:03;;;;;;;7.60;4.72;;;;;;;24.47;80.08;100258.13;5032548;28;20116;-76
2022/08/19 07:59:31;;;;;;;7.07;3.97;;;;;;;24.40;79.58;100261.66;5023923;28;20488;-76
2022/08/19 08:02:00;;;;;;;6.97;3.88;;;;;;;24.56;79.31;100274.59;5032098;28;20049;-75
2022/08/19 08:10:07;;;;;;;8.70;3.40;;;;;;;24.45;79.39;100252.13;5017659;28;20034;-76
2022/08/19 08:12:47;;;;;;;5.32;3.70;;;;;;;24.49;79.60;100255.75;5032411;28;20370;-76
2022/08/19 08:15:36;;;;;;;9.85;3.60;;;;;;;24.28;80.46;100251.56;5032632;28;20065;-76
2022/08/19 08:18:11;;;;;;;4.82;2.50;;;;;;;24.07;81.35;100246.53;5032571;28;20049;-76
2022/08/19 08:20:39;;;;;;;4.07;2.90;;;;;;;23.80;82.37;100240.19;5032873;28;20052;-76
2022/08/19 08:23:22;;;;;;;5.85;2.85;;;;;;;23.71;82.91;100232.06;5032410;28;20054;-76
2022/08/19 08:25:52;;;;;;;3.78;3.05;;;;;;;23.75;83.06;100225.34;5032086;28;20408;-76
2022/08/19 08:28:20;;;;;;;7.53;2.83;;;;;;;23.83;82.57;100220.66;5048528;28;20068;-76
2022/08/19 08:30:49;;;;;;;6.18;3.40;;;;;;;23.64;83.49;100223.63;5038752;28;20496;-76
2022/08/19 08:33:23;;;;;;;6.10;3.85;;;;;;;23.71;83.60;100234.88;5030037;28;20052;-76
2022/08/19 08:36:04;;;;;;;5.50;2.72;;;;;;;23.85;83.11;100240.63;5031851;28;20050;-76
2022/08/19 08:38:34;;;;;;;8.00;3.45;;;;;;;23.83;82.31;100258.97;5032719;28;20049;-76
2022/08/19 08:41:43;;;;;;;4.55;2.97;;;;;;;23.66;82.33;100260.34;5032825;28;20055;-76
2022/08/19 08:44:18;;;;;;;4.40;2.28;;;;;;;23.87;80.87;100265.41;5030929;28;20053;-76
2022/08/19 08:46:56;;;;;;;2.53;2.08;;;;;;;23.83;81.08;100270.13;5030658;28;20511;-77
2022/08/19 08:49:37;;;;;;;3.55;2.15;;;;;;;23.97;80.20;100281.50;5031778;28;20071;-76
2022/08/19 08:52:11;;;;;;;3.42;2.30;;;;;;;24.12;78.90;100293.72;5024214;28;20056;-76
2022/08/19 08:54:46;;;;;;;3.03;1.83;;;;;;;24.01;78.70;100310.28;5051978;28;20488;-76
2022/08/19 08:57:35;;;;;;;2.35;1.67;;;;;;;24.02;78.80;100327.88;5051962;28;20056;-76
2022/08/19 09:00:14;;;;;;;3.05;1.55;;;;;;;23.89;77.93;100336.50;5052581;28;20594;-76
2022/08/19 09:02:43;;;;;;;2.47;1.67;;;;;;;23.68;80.42;100327.78;5043298;28;20056;-76
2022/08/19 09:05:20;;;;;;;3.30;1.25;;;;;;;23.66;80.01;100327.38;5051596;28;20049;-76
2022/08/19 09:08:08;;;;;;;2.95;1.60;;;;;;;23.47;80.81;100324.28;5051784;28;20072;-76
2022/08/19 09:10:52;;;;;;;3.10;1.63;;;;;;;23.34;82.36;100334.88;5049800;28;20140;-77
2022/08/19 09:13:25;;;;;;;4.10;1.75;;;;;;;23.34;81.93;100334.06;5045201;28;20074;-77
2022/08/19 09:16:01;;;;;;;3.53;1.63;;;;;;;23.53;81.81;100335.16;5039114;28;20042;-77
2022/08/19 09:18:42;;;;;;;4.00;2.13;;;;;;;23.79;79.91;100319.59;5046892;28;20052;-77
2022/08/19 09:21:10;;;;;;;2.92;1.80;;;;;;;23.83;79.80;100315.66;5048702;28;20040;-77
2022/08/19 09:23:38;;;;;;;2.72;1.95;;;;;;;23.74;80.54;100313.13;5049611;28;20053;-77
2022/08/19 09:26:15;;;;;;;2.40;1.38;;;;;;;23.93;79.75;100302.19;5051232;28;20060;-77
2022/08/19 09:28:46;;;;;;;4.47;1.83;;;;;;;23.94;79.39;100303.81;5051561;28;20056;-77
2022/08/19 09:31:18;;;;;;;2.10;1.45;;;;;;;24.01;79.31;100287.13;5026460;28;20053;-77
2022/08/19 09:33:48;;;;;;;2.45;1.75;;;;;;;23.91;80.11;100282.22;5011394;28;20049;-77
2022/08/19 09:36:22;;;;;;;2.78;2.08;;;;;;;23.85;80.50;100276.16;5015961;28;20053;-76
2022/08/19 09:39:04;;;;;;;8.85;2.17;;;;;;;23.82;80.41;100274.94;5013356;28;20049;-77
2022/08/19 09:41:43;;;;;;;3.65;1.75;;;;;;;23.91;80.45;100263.47;5015710;28;20053;-77
2022/08/19 09:44:16;;;;;;;4.05;1.75;;;;;;;23.99;79.57;100255.97;5013816;28;20061;-77
2022/08/19 09:46:46;;;;;;;3.25;2.38;;;;;;;23.83;80.49;100248.59;5028855;28;20041;-77
2022/08/19 09:49:21;;;;;;;2.00;1.73;;;;;;;23.90;79.94;100242.28;5030723;28;20497;-77
2022/08/19 09:51:55;;;;;;;3.03;1.83;;;;;;;24.08;79.09;100239.75;5031857;28;20057;-77
2022/08/19 09:54:26;;;;;;;3.00;2.15;;;;;;;24.14;79.44;100235.41;5031462;28;20484;-77
2022/08/19 09:56:55;;;;;;;3.58;2.40;;;;;;;24.16;79.96;100226.66;5030848;28;20049;-77
2022/08/19 09:59:23;;;;;;;2.38;2.17;;;;;;;24.07;80.63;100220.53;5031205;28;20049;-77
2022/08/19 10:01:51;;;;;;;4.13;2.33;;;;;;;23.98;82.42;100220.81;5034517;28;20400;-77
2022/08/19 10:05:47;;;;;;;5.05;2.10;;;;;;;24.19;79.85;100216.72;5035122;28;20064;-77
2022/08/19 10:07:11;;;;;;;1.77;1.58;;;;;;;24.38;78.96;100205.31;5028276;28;20414;-77
2022/08/19 10:09:40;;;;;;;3.22;1.70;;;;;;;24.39;79.09;100201.31;5055589;28;20052;-77
2022/08/19 10:12:08;;;;;;;2.60;1.77;;;;;;;24.42;78.88;100206.16;5055046;28;20037;-77
2022/08/19 10:14:38;;;;;;;2.45;1.70;;;;;;;24.38;78.77;100194.13;5055008;28;20406;-77
2022/08/19 10:17:06;;;;;;;1.33;1.10;;;;;;;24.54;77.99;100204.28;5052629;28;20041;-77
2022/08/19 10:19:47;;;;;;;4.35;1.65;;;;;;;24.32;80.46;100208.84;5039496;28;20076;-77
2022/08/19 10:22:23;;;;;;;2.95;2.17;;;;;;;24.36;80.55;100210.50;5036882;28;20037;-77
2022/08/19 10:24:53;;;;;;;3.83;2.13;;;;;;;24.39;81.23;100208.94;5046898;28;20499;-77
2022/08/19 10:27:21;;;;;;;3.50;1.90;;;;;;;24.34;80.94;100209.28;5035022;28;20376;-77
2022/08/19 10:29:49;;;;;;;4.60;2.17;;;;;;;24.36;81.57;100215.28;5045962;28;20041;-77
2022/08/19 10:32:17;;;;;;;5.32;2.13;;;;;;;24.55;81.06;100203.88;5034186;28;20061;-77
2022/08/19 10:35:01;;;;;;;4.43;1.88;;;;;;;24.64;79.32;100211.16;5033648;28;20076;-77
2022/08/19 10:37:32;;;;;;;3.00;2.33;;;;;;;24.60;79.92;100213.09;5033405;28;20049;-77
2022/08/19 10:40:03;;;;;;;3.08;2.22;;;;;;;24.48;79.57;100217.00;5032407;28;20057;-77
2022/08/19 10:42:31;;;;;;;3.88;1.60;;;;;;;24.52;80.98;100215.03;5029208;28;20049;-77
2022/08/19 10:44:59;;;;;;;2.33;1.67;;;;;;;24.74;79.75;100206.84;5033024;28;20041;-77
2022/08/19 10:47:27;;;;;;;1.52;1.42;;;;;;;24.89;80.35;100214.19;5033718;28;20049;-77
2022/08/19 10:52:49;;;;;;;1.80;1.67;;;;;;;25.08;79.25;100201.13;5033474;28;20046;-77
2022/08/19 10:58:15;;;;;;;2.55;1.42;;;;;;;25.69;74.64;100192.28;5028901;28;20053;-77
2022/08/19 11:00:50;;;;;;;3.72;1.92;;;;;;;25.70;75.90;100190.31;5034630;28;20535;-77
2022/08/19 11:03:18;;;;;;;3.55;2.00;;;;;;;25.86;74.28;100181.53;5033008;28;20050;-77
2022/08/19 11:05:48;;;;;;;2.63;1.65;;;;;;;25.91;72.69;100183.97;5033339;28;20053;-77
2022/08/19 11:08:16;;;;;;;2.33;1.77;;;;;;;26.24;72.14;100189.69;5034077;28;20056;-77
2022/08/19 11:10:55;;;;;;;2.80;1.75;;;;;;;26.38;70.97;100188.88;5027928;28;20042;-76
2022/08/19 11:13:23;;;;;;;4.13;3.05;;;;;;;26.28;73.40;100194.09;5032145;28;20053;-77
2022/08/19 11:16:07;;;;;;;3.58;2.08;;;;;;;26.55;71.60;100207.72;5033550;28;20029;-77
2022/08/19 11:18:38;;;;;;;2.15;1.55;;;;;;;26.65;71.17;100208.16;5027989;28;20058;-77
2022/08/19 11:21:19;;;;;;;3.55;2.30;;;;;;;26.60;72.09;100216.97;5033464;28;20041;-77
2022/08/19 11:23:50;;;;;;;3.97;2.60;;;;;;;26.83;73.81;100213.75;5031990;28;20050;-77
2022/08/19 11:26:20;;;;;;;4.45;2.72;;;;;;;26.93;74.10;100200.97;5033746;28;20515;-77
2022/08/19 11:28:51;;;;;;;4.95;3.08;;;;;;;27.31;73.15;100211.72;5033274;28;20054;-76
2022/08/19 11:31:22;;;;;;;4.07;2.30;;;;;;;27.62;69.03;100214.88;5033407;28;20038;-76
2022/08/19 11:34:04;;;;;;;3.30;3.00;;;;;;;28.04;69.80;100217.91;5034095;28;20516;-76
2022/08/19 11:36:33;;;;;;;2.85;2.50;;;;;;;28.36;64.60;100219.75;5033538;28;20045;-76
2022/08/19 11:39:01;;;;;;;4.43;2.72;;;;;;;28.11;62.37;100214.25;5033828;28;20053;-76
2022/08/19 11:41:29;;;;;;;3.47;2.90;;;;;;;28.15;64.17;100220.69;5033784;28;20042;-77
2022/08/19 11:43:57;;;;;;;4.85;2.40;;;;;;;27.69;65.98;100217.66;5033324;28;20484;-77
2022/08/19 11:46:29;;;;;;;3.30;3.00;;;;;;;27.74;67.29;100216.44;5032710;28;20053;-77
2022/08/19 11:49:00;;;;;;;5.07;3.25;;;;;;;27.75;66.18;100221.66;5032233;28;20481;-77
2022/08/19 11:51:29;;;;;;;2.65;2.42;;;;;;;27.92;65.10;100226.81;5033400;28;20042;-77
2022/08/19 11:53:59;;;;;;;6.25;3.55;;;;;;;27.67;67.31;100224.91;5033155;28;20049;-77
2022/08/19 11:56:27;;;;;;;3.95;2.60;;;;;;;27.61;66.28;100227.34;5033065;28;20037;-77
2022/08/19 11:58:56;;;;;;;4.22;2.58;;;;;;;27.64;66.56;100232.13;5033091;28;20052;-76
2022/08/19 12:01:26;;;;;;;3.47;2.95;;;;;;;27.67;66.75;100230.53;5033334;28;20057;-77
2022/08/19 12:03:55;;;;;;;4.05;3.65;;;;;;;27.61;66.37;100222.50;5032340;28;20049;-77
2022/08/19 12:06:31;;;;;;;6.13;3.55;;;;;;;27.96;68.64;100213.53;5032202;28;20124;-77